Time;durP1;ratioP1;P1;durP2;ratioP2;P2;SDS_P1;SDS_P2;PMS_P1;PMS_P2;Temp;Humidity;BMP_temperature;BMP_pressure;BME280_temperature;BME280_humidity;BME280_pressure;Samples;Min_cycle;Max_cycle;Signal;HPM_P1;HPM_P2
2021/12/22 00:01:29;;;;;;;4.30;3.90;;;22.70;62.40;;;;;;5053131;28;20460;-67
2021/12/22 00:03:56;;;;;;;4.60;4.20;;;22.60;62.30;;;;;;5052967;28;20469;-67
2021/12/22 00:06:26;;;;;;;4.10;3.80;;;22.60;61.90;;;;;;5052911;28;20438;-67
2021/12/22 00:08:53;;;;;;;4.23;3.83;;;22.70;62.00;;;;;;5052930;28;20438;-67
2021/12/22 00:11:20;;;;;;;3.40;3.20;;;22.60;61.80;;;;;;5053034;28;20460;-67
2021/12/22 00:13:47;;;;;;;4.13;3.83;;;22.70;62.80;;;;;;5052915;28;20437;-67
2021/12/22 00:16:13;;;;;;;3.60;3.30;;;22.60;61.70;;;;;;5052777;28;20465;-67
2021/12/22 00:18:42;;;;;;;3.87;3.57;;;22.60;61.70;;;;;;5052779;28;20448;-67
2021/12/22 00:21:09;;;;;;;3.63;3.33;;;22.70;61.60;;;;;;5052780;28;20935;-67
2021/12/22 00:23:36;;;;;;;4.17;3.87;;;22.70;61.50;;;;;;5052658;28;20452;-67
2021/12/22 00:26:04;;;;;;;4.17;3.77;;;22.60;61.40;;;;;;5052875;28;20443;-67
2021/12/22 00:28:32;;;;;;;3.53;3.23;;;22.70;61.40;;;;;;5052729;28;20830;-67
2021/12/22 00:30:58;;;;;;;4.00;3.70;;;22.70;61.30;;;;;;5052712;28;20481;-67
2021/12/22 00:33:27;;;;;;;4.00;3.70;;;22.70;61.30;;;;;;5052594;28;20429;-67
2021/12/22 00:35:55;;;;;;;4.17;3.87;;;22.70;61.20;;;;;;5052432;28;20911;-67
2021/12/22 00:38:23;;;;;;;4.40;4.10;;;22.70;61.10;;;;;;5052607;28;20445;-67
2021/12/22 00:40:50;;;;;;;4.10;3.80;;;22.70;61.10;;;;;;5052411;28;20481;-67
2021/12/22 00:43:19;;;;;;;3.70;3.40;;;22.60;61.00;;;;;;5052574;28;20448;-67
2021/12/22 00:45:47;;;;;;;3.40;3.20;;;22.70;61.10;;;;;;5052261;28;20991;-67
2021/12/22 00:48:14;;;;;;;3.83;3.43;;;22.70;61.10;;;;;;5054026;28;20499;-67
2021/12/22 00:50:41;;;;;;;4.20;3.87;;;22.70;60.90;;;;;;5056072;28;20544;-67
2021/12/22 00:53:10;;;;;;;3.77;3.47;;;22.70;61.90;;;;;;5056147;28;20441;-67
2021/12/22 00:55:36;;;;;;;3.50;3.27;;;22.70;60.70;;;;;;5056059;28;20448;-67
2021/12/22 00:58:04;;;;;;;4.33;3.93;;;22.60;60.70;;;;;;5056105;28;20437;-67
2021/12/22 01:00:31;;;;;;;4.07;3.77;;;22.70;60.80;;;;;;5056034;28;20437;-67
2021/12/22 01:02:58;;;;;;;3.83;3.53;;;22.70;60.90;;;;;;5055901;28;20858;-67
2021/12/22 01:05:25;;;;;;;4.20;3.90;;;22.70;60.90;;;;;;5055798;28;20830;-67
2021/12/22 01:07:53;;;;;;;3.67;3.37;;;22.70;60.70;;;;;;5055737;28;20441;-67
2021/12/22 01:10:24;;;;;;;3.50;3.30;;;22.70;60.90;;;;;;5055964;28;20437;-67
2021/12/22 01:12:52;;;;;;;4.07;3.77;;;22.70;60.50;;;;;;5055991;28;20433;-67
2021/12/22 01:15:19;;;;;;;3.63;3.33;;;22.70;60.60;;;;;;5055569;28;20948;-67
2021/12/22 01:17:49;;;;;;;3.73;3.43;;;22.70;60.80;;;;;;5055717;28;20457;-67
2021/12/22 01:20:26;;;;;;;4.20;3.90;;;22.60;60.40;;;;;;5055580;28;20789;-67
2021/12/22 01:23:01;;;;;;;3.97;3.67;;;22.60;60.70;;;;;;5055645;28;20999;-67
2021/12/22 01:25:31;;;;;;;3.60;3.40;;;22.70;60.70;;;;;;5055461;28;20580;-67
2021/12/22 01:27:58;;;;;;;3.40;3.20;;;22.60;60.40;;;;;;5055541;28;20437;-67
2021/12/22 01:30:28;;;;;;;3.70;3.40;;;22.60;60.60;;;;;;5055482;28;20438;-67
2021/12/22 01:32:57;;;;;;;4.10;3.80;;;22.70;60.60;;;;;;5055520;28;20441;-67
2021/12/22 01:35:26;;;;;;;3.70;3.40;;;22.70;60.40;;;;;;5055243;28;20444;-67
2021/12/22 01:37:53;;;;;;;4.10;3.80;;;22.70;60.50;;;;;;5055316;28;20442;-67
2021/12/22 01:40:21;;;;;;;4.30;3.90;;;22.70;60.30;;;;;;5055004;28;20465;-67
2021/12/22 01:42:51;;;;;;;4.10;3.80;;;22.70;60.20;;;;;;5055315;28;20442;-67
2021/12/22 01:45:30;;;;;;;3.70;3.40;;;22.70;60.10;;;;;;5054976;28;20538;-67
2021/12/22 01:50:46;;;;;;;4.10;3.80;;;22.70;60.10;;;;;;5055240;28;20424;-67
2021/12/22 01:53:31;;;;;;;4.67;4.27;;;22.70;59.90;;;;;;5054924;28;20819;-67
2021/12/22 01:56:07;;;;;;;3.67;3.37;;;22.70;59.90;;;;;;5054950;28;20827;-67
2021/12/22 01:58:37;;;;;;;3.77;3.50;;;22.70;59.90;;;;;;5055025;28;20441;-67
2021/12/22 02:01:06;;;;;;;3.80;3.50;;;22.70;59.70;;;;;;5054976;28;20433;-67
2021/12/22 02:03:33;;;;;;;4.33;4.03;;;22.70;59.60;;;;;;5054729;28;20445;-67
2021/12/22 02:06:00;;;;;;;4.40;4.10;;;22.70;59.80;;;;;;5054660;28;20485;-67
2021/12/22 02:08:26;;;;;;;4.53;4.20;;;22.70;59.70;;;;;;5054763;28;20791;-67
2021/12/22 02:10:53;;;;;;;4.30;3.90;;;22.70;60.60;;;;;;5054622;28;20460;-67
2021/12/22 02:13:24;;;;;;;3.93;3.53;;;22.70;59.70;;;;;;5054622;28;20437;-67
2021/12/22 02:15:52;;;;;;;4.30;3.90;;;22.70;59.70;;;;;;5054388;28;20489;-67
2021/12/22 02:18:21;;;;;;;5.13;4.50;;;22.70;59.60;;;;;;5054591;28;20433;-67
2021/12/22 02:20:51;;;;;;;4.27;3.97;;;22.70;59.60;;;;;;5054414;28;20888;-67
2021/12/22 02:23:18;;;;;;;4.60;4.20;;;22.70;59.60;;;;;;5054883;28;20445;-67
2021/12/22 02:25:52;;;;;;;4.27;3.97;;;22.70;59.70;;;;;;5054455;28;20481;-67
2021/12/22 02:28:23;;;;;;;4.60;4.10;;;22.70;59.60;;;;;;5054223;28;20436;-67
2021/12/22 02:30:51;;;;;;;4.87;4.40;;;22.70;59.60;;;;;;5054373;28;20517;-67
2021/12/22 02:33:23;;;;;;;4.53;4.10;;;22.70;59.60;;;;;;5054339;28;20461;-67
2021/12/22 02:36:07;;;;;;;4.50;4.10;;;22.70;59.50;;;;;;5054175;28;20537;-67
2021/12/22 02:38:36;;;;;;;4.33;4.03;;;22.70;59.60;;;;;;5054130;28;20912;-67
2021/12/22 02:41:04;;;;;;;4.67;4.30;;;22.70;59.60;;;;;;5053921;28;20473;-67
2021/12/22 02:43:32;;;;;;;4.90;4.50;;;22.70;59.50;;;;;;5054048;28;20441;-67
2021/12/22 02:46:00;;;;;;;4.97;4.57;;;22.70;59.60;;;;;;5053746;28;20555;-67
2021/12/22 02:48:29;;;;;;;4.90;4.50;;;22.70;59.60;;;;;;5053900;28;20441;-67
2021/12/22 02:51:00;;;;;;;4.50;4.10;;;22.70;59.50;;;;;;5054005;28;20540;-67
2021/12/22 02:53:31;;;;;;;4.67;4.27;;;22.70;59.50;;;;;;5054507;28;20933;-67
2021/12/22 02:56:03;;;;;;;5.00;4.50;;;22.70;59.60;;;;;;5053798;28;20436;-67
2021/12/22 02:58:37;;;;;;;5.07;4.67;;;22.70;59.70;;;;;;5053752;28;20445;-67
2021/12/22 03:01:12;;;;;;;4.97;4.57;;;22.70;59.60;;;;;;5053862;28;20532;-67
2021/12/22 03:03:57;;;;;;;4.80;4.30;;;22.70;59.60;;;;;;5053797;28;20524;-67
2021/12/22 03:06:32;;;;;;;4.63;4.33;;;22.70;59.60;;;;;;5053699;28;20480;-67
2021/12/22 03:09:00;;;;;;;4.73;4.30;;;22.70;59.70;;;;;;5053758;28;20441;-67
2021/12/22 03:11:27;;;;;;;4.23;3.93;;;22.60;59.60;;;;;;5053241;28;20446;-67
2021/12/22 03:13:53;;;;;;;4.73;4.33;;;22.70;60.50;;;;;;5053443;28;20946;-67
2021/12/22 03:16:21;;;;;;;5.50;5.10;;;22.70;59.60;;;;;;5053493;28;20484;-67
2021/12/22 03:18:47;;;;;;;4.97;4.57;;;22.60;59.50;;;;;;5053432;28;20452;-67
2021/12/22 03:21:18;;;;;;;4.70;4.30;;;22.70;59.80;;;;;;5053507;28;20920;-67
2021/12/22 03:23:47;;;;;;;4.47;4.07;;;22.60;59.50;;;;;;5053528;28;20453;-67
2021/12/22 03:26:16;;;;;;;4.57;4.17;;;22.70;59.50;;;;;;5053304;28;20812;-67
2021/12/22 03:28:44;;;;;;;4.97;4.57;;;22.70;59.50;;;;;;5053353;28;20790;-67
2021/12/22 03:31:11;;;;;;;5.70;5.20;;;22.60;59.50;;;;;;5053217;28;20434;-67
2021/12/22 03:33:37;;;;;;;5.30;4.90;;;22.70;59.60;;;;;;5053180;28;20437;-67
2021/12/22 03:36:04;;;;;;;5.10;4.70;;;22.70;59.60;;;;;;5053154;28;20448;-67
2021/12/22 03:38:32;;;;;;;5.00;4.60;;;22.60;59.40;;;;;;5053143;28;20438;-67
2021/12/22 03:41:01;;;;;;;5.33;4.83;;;22.60;59.60;;;;;;5053010;28;20466;-67
2021/12/22 03:43:28;;;;;;;5.57;5.07;;;22.60;59.50;;;;;;5053055;28;20429;-67
2021/12/22 03:45:54;;;;;;;5.07;4.57;;;22.60;59.60;;;;;;5052815;28;20511;-67
2021/12/22 03:48:24;;;;;;;4.83;4.43;;;22.60;59.40;;;;;;5053007;28;20442;-67
2021/12/22 03:50:50;;;;;;;4.83;4.43;;;22.60;59.50;;;;;;5053107;28;20441;-67
2021/12/22 03:53:17;;;;;;;5.33;4.83;;;22.60;59.50;;;;;;5053045;28;20503;-67
2021/12/22 03:55:44;;;;;;;5.53;5.03;;;22.60;59.70;;;;;;5053015;28;20847;-67
2021/12/22 03:58:14;;;;;;;5.87;5.27;;;22.60;59.50;;;;;;5053052;28;20943;-67
2021/12/22 04:00:43;;;;;;;5.00;4.60;;;22.70;59.50;;;;;;5053019;28;20441;-67
2021/12/22 04:03:16;;;;;;;5.27;4.77;;;22.60;59.40;;;;;;5053067;28;20441;-67
2021/12/22 04:05:43;;;;;;;4.90;4.40;;;22.60;59.50;;;;;;5052892;28;20539;-67
2021/12/22 04:08:11;;;;;;;5.87;5.33;;;22.60;59.40;;;;;;5053085;28;20449;-67
2021/12/22 04:10:37;;;;;;;5.77;5.27;;;22.60;59.50;;;;;;5053019;28;20453;-67
2021/12/22 04:13:05;;;;;;;5.40;4.67;;;22.60;59.50;;;;;;5052661;28;20449;-67
2021/12/22 04:15:34;;;;;;;5.17;4.77;;;22.60;59.40;;;;;;5052735;28;20460;-67
2021/12/22 04:18:01;;;;;;;5.97;5.47;;;22.70;59.40;;;;;;5052864;28;20441;-67
2021/12/22 04:20:29;;;;;;;5.93;5.33;;;22.70;59.30;;;;;;5052862;28;20931;-67
2021/12/22 04:22:56;;;;;;;5.57;5.07;;;22.70;59.10;;;;;;5053690;28;20484;-67
2021/12/22 04:25:23;;;;;;;5.13;4.63;;;22.70;59.10;;;;;;5056507;28;20489;-67
2021/12/22 04:27:51;;;;;;;5.80;5.33;;;22.70;59.00;;;;;;5056722;28;20448;-67
2021/12/22 04:30:18;;;;;;;6.03;5.43;;;22.70;58.90;;;;;;5056520;28;20437;-67
2021/12/22 04:32:46;;;;;;;5.07;4.57;;;22.70;59.50;;;;;;5056414;28;20841;-67
2021/12/22 04:35:13;;;;;;;6.60;5.43;;;22.70;58.90;;;;;;5056383;28;20452;-67
2021/12/22 04:37:39;;;;;;;5.30;4.77;;;22.70;58.90;;;;;;5056446;28;20445;-67
2021/12/22 04:40:07;;;;;;;5.73;5.23;;;22.70;58.80;;;;;;5056200;28;20488;-67
2021/12/22 04:42:34;;;;;;;4.73;4.30;;;22.70;58.90;;;;;;5056273;28;20441;-67
2021/12/22 04:45:04;;;;;;;5.63;5.13;;;22.70;58.80;;;;;;5056136;28;20449;-67
2021/12/22 04:47:31;;;;;;;5.47;4.97;;;22.70;58.70;;;;;;5056261;28;20437;-67
2021/12/22 04:50:00;;;;;;;6.33;5.80;;;22.70;58.80;;;;;;5056183;28;20448;-67
2021/12/22 04:52:32;;;;;;;5.90;5.40;;;22.70;58.70;;;;;;5056029;28;20452;-67
2021/12/22 04:55:04;;;;;;;6.93;6.23;;;22.70;58.70;;;;;;5056128;28;20429;-67
2021/12/22 04:57:31;;;;;;;6.23;5.63;;;22.70;58.70;;;;;;5056056;28;20437;-67
2021/12/22 04:59:58;;;;;;;5.77;5.27;;;22.70;58.70;;;;;;5056003;28;20434;-67
2021/12/22 05:02:24;;;;;;;4.90;4.50;;;22.70;58.70;;;;;;5055989;28;20857;-67
2021/12/22 05:04:51;;;;;;;6.33;5.73;;;22.70;58.80;;;;;;5055843;28;20441;-67
2021/12/22 05:07:19;;;;;;;6.47;5.20;;;22.70;58.80;;;;;;5055990;28;20465;-67
2021/12/22 05:09:46;;;;;;;5.77;5.27;;;22.70;58.80;;;;;;5055986;28;20438;-67
2021/12/22 05:12:12;;;;;;;5.57;5.07;;;22.70;58.70;;;;;;5055746;28;20785;-67
2021/12/22 05:14:42;;;;;;;6.10;5.47;;;22.70;58.80;;;;;;5055715;28;20466;-67
2021/12/22 05:17:17;;;;;;;6.00;5.50;;;22.70;58.90;;;;;;5055611;28;20444;-67
2021/12/22 05:19:44;;;;;;;6.13;5.63;;;22.70;58.90;;;;;;5055731;28;20924;-67
2021/12/22 05:22:11;;;;;;;6.00;5.40;;;22.70;58.80;;;;;;5055608;28;20438;-67
2021/12/22 05:24:39;;;;;;;6.53;5.93;;;22.70;58.80;;;;;;5055433;28;20438;-67
2021/12/22 05:27:07;;;;;;;5.70;5.20;;;22.60;58.80;;;;;;5055348;28;21026;-67
2021/12/22 05:29:34;;;;;;;6.00;5.50;;;22.50;59.80;;;;;;5055554;28;20532;-67
2021/12/22 05:32:03;;;;;;;5.97;5.47;;;22.50;60.00;;;;;;5055627;28;20454;-67
2021/12/22 05:34:30;;;;;;;6.13;5.57;;;22.50;59.80;;;;;;5054866;28;20445;-67
2021/12/22 05:36:57;;;;;;;6.17;5.63;;;22.50;59.40;;;;;;5055358;28;20445;-67
2021/12/22 05:39:23;;;;;;;6.80;5.97;;;22.50;59.30;;;;;;5055151;28;20444;-67
2021/12/22 05:41:51;;;;;;;7.23;6.53;;;22.50;59.20;;;;;;5055083;28;20477;-67
2021/12/22 05:44:18;;;;;;;6.70;5.30;;;22.60;59.40;;;;;;5055153;28;20441;-67
2021/12/22 05:46:45;;;;;;;5.37;4.87;;;22.60;59.20;;;;;;5055106;28;20867;-67
2021/12/22 05:49:12;;;;;;;5.20;4.80;;;22.60;59.20;;;;;;5055121;28;20464;-67
2021/12/22 05:51:38;;;;;;;6.20;5.30;;;22.60;59.20;;;;;;5054821;28;20449;-67
2021/12/22 05:54:05;;;;;;;6.40;5.80;;;22.50;59.70;;;;;;5054959;28;20788;-67
2021/12/22 05:56:32;;;;;;;10.13;5.20;;;22.50;59.70;;;;;;5054918;28;20442;-67
2021/12/22 05:59:00;;;;;;;7.93;6.40;;;22.50;59.90;;;;;;5054937;28;20438;-67
2021/12/22 06:01:30;;;;;;;6.57;6.03;;;22.40;59.90;;;;;;5054812;28;20963;-67
2021/12/22 06:03:56;;;;;;;5.53;5.07;;;22.40;59.70;;;;;;5054805;28;20445;-67
2021/12/22 06:06:23;;;;;;;6.53;5.90;;;22.40;59.70;;;;;;5054730;28;20485;-67
2021/12/22 06:08:50;;;;;;;6.33;5.73;;;22.40;59.80;;;;;;5054868;28;20442;-67
2021/12/22 06:11:17;;;;;;;5.80;5.30;;;22.40;59.80;;;;;;5054671;28;20925;-67
2021/12/22 06:13:43;;;;;;;7.47;5.50;;;22.40;59.90;;;;;;5054521;28;20453;-67
2021/12/22 06:16:11;;;;;;;6.93;5.77;;;22.40;59.90;;;;;;5054290;28;20987;-67
2021/12/22 06:18:43;;;;;;;6.23;5.63;;;22.40;59.90;;;;;;5054611;28;20944;-67
2021/12/22 06:21:10;;;;;;;6.27;5.67;;;22.40;59.80;;;;;;5054426;28;20437;-67
2021/12/22 06:23:37;;;;;;;4.87;4.40;;;22.40;59.90;;;;;;5054590;28;20470;-67
2021/12/22 06:26:04;;;;;;;6.30;5.70;;;22.40;59.90;;;;;;5054291;28;20481;-67
2021/12/22 06:28:30;;;;;;;5.50;5.10;;;22.40;59.90;;;;;;5054149;28;20446;-67
2021/12/22 06:30:57;;;;;;;5.83;5.33;;;22.40;59.70;;;;;;5054344;28;20442;-67
2021/12/22 06:33:25;;;;;;;6.53;5.93;;;22.40;59.70;;;;;;5054138;28;20430;-67
2021/12/22 06:35:52;;;;;;;6.57;5.27;;;22.40;59.80;;;;;;5054277;28;20438;-67
2021/12/22 06:38:19;;;;;;;6.50;5.90;;;22.40;59.80;;;;;;5054205;28;20448;-67
2021/12/22 06:40:45;;;;;;;6.03;5.50;;;22.40;59.80;;;;;;5053934;28;20496;-67
2021/12/22 06:43:15;;;;;;;6.20;5.60;;;22.40;59.80;;;;;;5054093;28;20433;-67
2021/12/22 06:45:42;;;;;;;6.17;5.57;;;22.40;59.60;;;;;;5053072;28;20986;-67
2021/12/22 06:48:08;;;;;;;6.73;5.43;;;22.30;59.70;;;;;;5054039;28;20796;-67
2021/12/22 06:50:36;;;;;;;5.90;5.30;;;22.40;59.80;;;;;;5053885;28;20446;-67
2021/12/22 06:53:03;;;;;;;6.00;5.30;;;22.40;59.70;;;;;;5053725;28;20434;-67
2021/12/22 06:55:30;;;;;;;6.03;5.50;;;22.40;59.70;;;;;;5053720;28;20785;-67
2021/12/22 06:57:59;;;;;;;5.70;5.20;;;22.40;59.80;;;;;;5053730;28;20446;-67
2021/12/22 07:00:26;;;;;;;4.80;4.40;;;22.40;59.80;;;;;;5053817;28;20449;-67
2021/12/22 07:02:53;;;;;;;4.83;4.43;;;22.40;59.60;;;;;;5053837;28;20448;-67
2021/12/22 07:05:21;;;;;;;5.27;4.77;;;22.40;59.70;;;;;;5053915;28;20445;-67
2021/12/22 07:07:49;;;;;;;5.37;4.87;;;22.40;59.80;;;;;;5053729;28;20504;-67
2021/12/22 07:10:16;;;;;;;4.80;4.40;;;22.40;59.70;;;;;;5053714;28;20453;-67
2021/12/22 07:12:45;;;;;;;5.60;5.10;;;22.40;59.80;;;;;;5053519;28;20442;-67
2021/12/22 07:15:14;;;;;;;6.27;5.23;;;22.40;59.70;;;;;;5053333;28;20816;-67
2021/12/22 07:17:41;;;;;;;6.87;5.57;;;22.40;59.80;;;;;;5053579;28;20807;-67
2021/12/22 07:20:10;;;;;;;4.60;4.20;;;22.40;59.70;;;;;;5053521;28;20479;-67
2021/12/22 07:22:37;;;;;;;5.40;4.77;;;22.40;59.50;;;;;;5053524;28;20433;-67
2021/12/22 07:25:08;;;;;;;5.10;4.70;;;22.40;59.60;;;;;;5053268;28;20836;-67
2021/12/22 07:27:35;;;;;;;5.40;4.90;;;22.40;59.50;;;;;;5053411;28;20814;-67
2021/12/22 07:30:02;;;;;;;5.70;5.20;;;22.40;59.50;;;;;;5053331;28;20449;-67
2021/12/22 07:32:28;;;;;;;6.60;4.77;;;22.40;59.40;;;;;;5053095;28;20932;-67
2021/12/22 07:35:03;;;;;;;5.57;5.07;;;22.40;59.50;;;;;;5053212;28;20476;-67
2021/12/22 07:37:43;;;;;;;5.00;4.50;;;22.40;59.30;;;;;;5053343;28;20433;-67
2021/12/22 07:40:14;;;;;;;11.97;5.73;;;22.40;59.40;;;;;;5053027;28;20473;-67
2021/12/22 07:42:42;;;;;;;5.33;4.80;;;22.50;58.00;;;;;;5053157;28;20441;-67
2021/12/22 07:45:11;;;;;;;5.80;5.20;;;22.50;59.20;;;;;;5052998;28;20790;-75
2021/12/22 07:47:38;;;;;;;5.37;4.87;;;22.40;59.50;;;;;;5052507;28;20485;-69
2021/12/22 07:50:07;;;;;;;6.43;4.93;;;22.20;59.50;;;;;;5051707;28;20442;-67
2021/12/22 07:52:34;;;;;;;4.80;4.50;;;22.10;59.50;;;;;;5052356;28;20444;-66
2021/12/22 07:55:01;;;;;;;6.17;4.40;;;22.00;59.60;;;;;;5052997;28;20781;-67
2021/12/22 07:57:29;;;;;;;5.53;5.03;;;22.10;59.50;;;;;;5054976;28;20913;-67
2021/12/22 07:59:56;;;;;;;5.40;4.97;;;22.20;59.50;;;;;;5057230;28;20437;-67
2021/12/22 08:02:22;;;;;;;4.90;4.50;;;22.20;59.60;;;;;;5056899;28;20438;-68
2021/12/22 08:04:49;;;;;;;6.60;5.10;;;22.20;59.50;;;;;;5057062;28;20917;-67
2021/12/22 08:07:16;;;;;;;5.90;5.27;;;22.30;58.80;;;;;;5056582;28;20500;-67
2021/12/22 08:09:42;;;;;;;5.77;4.60;;;22.30;58.30;;;;;;5055404;28;20937;-67
2021/12/22 08:12:09;;;;;;;4.80;4.27;;;22.30;59.00;;;;;;5056629;28;20447;-67
2021/12/22 08:14:39;;;;;;;5.33;4.83;;;22.30;59.20;;;;;;5056712;28;20548;-67
2021/12/22 08:17:06;;;;;;;4.80;4.40;;;22.30;59.20;;;;;;5056496;28;20433;-67
2021/12/22 08:19:33;;;;;;;7.07;4.53;;;22.30;59.30;;;;;;5056803;28;20446;-67
2021/12/22 08:22:00;;;;;;;4.50;4.10;;;22.30;59.20;;;;;;5056716;28;20928;-67
2021/12/22 08:24:27;;;;;;;5.03;4.63;;;22.40;59.30;;;;;;5056721;28;20437;-67
2021/12/22 08:26:54;;;;;;;5.40;4.90;;;22.40;59.10;;;;;;5056692;28;20484;-67
2021/12/22 08:29:20;;;;;;;5.47;4.90;;;22.50;59.20;;;;;;5056501;28;20437;-67
2021/12/22 08:31:49;;;;;;;6.37;4.67;;;22.50;59.10;;;;;;5056454;28;20460;-67
2021/12/22 08:34:22;;;;;;;5.03;4.53;;;22.50;59.10;;;;;;5056548;28;20448;-67
2021/12/22 08:39:33;;;;;;;6.83;5.00;;;22.50;59.10;;;;;;5056312;28;20525;-67
2021/12/22 08:42:00;;;;;;;5.80;5.13;;;22.40;59.10;;;;;;5056427;28;20437;-67
2021/12/22 08:44:27;;;;;;;7.47;5.43;;;22.50;59.10;;;;;;5056171;28;20465;-67
2021/12/22 08:46:56;;;;;;;4.37;4.07;;;22.40;59.00;;;;;;5056206;28;20489;-67
2021/12/22 08:49:24;;;;;;;5.47;4.73;;;22.50;59.10;;;;;;5056206;28;20453;-67
2021/12/22 08:51:51;;;;;;;6.70;5.63;;;22.50;59.00;;;;;;5055830;28;20792;-67
2021/12/22 08:54:19;;;;;;;9.90;6.07;;;22.40;55.00;;;;;;5056003;28;20792;-67
2021/12/22 08:56:46;;;;;;;7.30;5.03;;;21.90;56.20;;;;;;5055970;28;20437;-70
2021/12/22 08:59:14;;;;;;;5.87;4.60;;;21.80;58.10;;;;;;5056069;28;20444;-70
2021/12/22 09:01:41;;;;;;;4.03;3.73;;;21.80;58.90;;;;;;5056027;28;20801;-73
2021/12/22 09:04:10;;;;;;;5.17;4.70;;;21.70;59.40;;;;;;5055929;28;20790;-73
2021/12/22 09:06:37;;;;;;;4.53;4.13;;;21.70;59.50;;;;;;5055730;28;20999;-68
2021/12/22 09:09:05;;;;;;;5.00;4.37;;;21.60;59.40;;;;;;5055171;28;20617;-69
2021/12/22 09:11:32;;;;;;;5.57;4.67;;;21.60;59.40;;;;;;5055236;28;20916;-69
2021/12/22 09:14:02;;;;;;;5.30;4.53;;;21.50;59.50;;;;;;5055326;28;20532;-74
2021/12/22 09:16:29;;;;;;;4.87;4.27;;;21.50;59.50;;;;;;5058557;28;20825;-74
2021/12/22 09:18:56;;;;;;;5.23;4.73;;;21.50;59.40;;;;;;5055841;28;20441;-74
2021/12/22 09:21:24;;;;;;;4.80;4.30;;;21.50;59.60;;;;;;5055707;28;20519;-78
2021/12/22 09:23:50;;;;;;;5.03;4.57;;;21.50;59.70;;;;;;5055145;28;20445;-72
2021/12/22 09:26:18;;;;;;;5.07;4.57;;;21.50;60.00;;;;;;5055289;28;20434;-74
2021/12/22 09:28:45;;;;;;;6.03;5.47;;;21.40;59.80;;;;;;5060580;28;20441;-64
2021/12/22 09:31:12;;;;;;;5.20;4.67;;;21.40;59.80;;;;;;5075805;28;20456;-73
2021/12/22 09:33:40;;;;;;;5.60;4.40;;;21.40;59.80;;;;;;5068304;28;20430;-67
2021/12/22 09:36:09;;;;;;;4.80;4.40;;;21.50;59.80;;;;;;5056429;28;20434;-79
2021/12/22 09:38:37;;;;;;;9.80;7.17;;;21.50;59.80;;;;;;5075332;28;20490;-77
2021/12/22 09:41:06;;;;;;;8.33;5.43;;;21.40;57.50;;;;;;5075067;28;20475;-67
2021/12/22 09:43:33;;;;;;;11.23;4.90;;;21.20;58.30;;;;;;5075314;28;20885;-67
2021/12/22 09:46:04;;;;;;;6.70;4.87;;;21.10;59.30;;;;;;5075161;28;20453;-78
2021/12/22 09:48:37;;;;;;;7.17;5.23;;;21.10;59.40;;;;;;5075053;28;20511;-67
2021/12/22 09:53:53;;;;;;;5.50;5.00;;;21.20;59.50;;;;;;5064664;28;20417;-74
2021/12/22 09:56:22;;;;;;;5.53;4.93;;;21.20;59.30;;;;;;5055070;28;20429;-66
2021/12/22 09:58:50;;;;;;;10.70;7.10;;;21.30;59.40;;;;;;5055207;28;20421;-67
2021/12/22 10:01:22;;;;;;;9.77;8.13;;;21.30;59.40;;;;;;5055238;28;20441;-77
2021/12/22 10:03:49;;;;;;;13.70;7.70;;;21.30;59.60;;;;;;5054840;28;20456;-66
2021/12/22 10:06:16;;;;;;;7.33;6.37;;;21.40;59.60;;;;;;5054705;28;20438;-73
2021/12/22 10:08:53;;;;;;;14.13;8.30;;;21.50;59.40;;;;;;5054592;28;20503;-74
2021/12/22 10:11:20;;;;;;;14.60;8.73;;;21.70;59.60;;;;;;5054926;28;20441;-66
2021/12/22 10:13:47;;;;;;;16.80;9.67;;;21.70;59.30;;;;;;5054388;28;20858;-72
2021/12/22 10:16:16;;;;;;;7.60;6.37;;;21.80;59.50;;;;;;5054533;28;20769;-73
2021/12/22 10:18:43;;;;;;;9.90;6.10;;;21.80;59.70;;;;;;5053833;28;20449;-67
2021/12/22 10:21:11;;;;;;;14.70;8.33;;;21.90;60.70;;;;;;5051848;28;21165;-66
2021/12/22 10:23:42;;;;;;;17.60;10.23;;;22.00;59.20;;;;;;5052748;28;20479;-63
2021/12/22 10:26:16;;;;;;;11.80;8.10;;;21.90;59.30;;;;;;5054283;28;20445;-68
2021/12/22 10:28:49;;;;;;;10.23;8.47;;;21.80;59.70;;;;;;5053113;28;20525;-70
2021/12/22 10:31:18;;;;;;;12.70;7.00;;;21.80;60.00;;;;;;5057597;28;20457;-63
2021/12/22 10:33:46;;;;;;;9.67;7.23;;;21.80;60.00;;;;;;5054253;28;20537;-65
2021/12/22 10:36:15;;;;;;;11.83;7.83;;;21.80;59.10;;;;;;5057112;28;20963;-64
2021/12/22 10:38:49;;;;;;;8.57;7.10;;;21.70;59.70;;;;;;5061600;28;21013;-61
2021/12/22 10:41:19;;;;;;;9.10;6.73;;;21.70;59.90;;;;;;5062543;28;20457;-65
2021/12/22 10:43:49;;;;;;;9.60;7.20;;;21.70;60.00;;;;;;5061326;28;20453;-61
2021/12/22 10:46:25;;;;;;;23.93;6.30;;;21.80;60.10;;;;;;5062354;28;20959;-63
2021/12/22 10:49:17;;;;;;;11.43;7.23;;;21.80;60.00;;;;;;5060650;28;20991;-64
2021/12/22 10:51:47;;;;;;;9.37;7.23;;;21.80;60.00;;;;;;5060817;28;20448;-64
2021/12/22 10:54:16;;;;;;;12.90;7.07;;;21.80;60.10;;;;;;5061314;28;20441;-64
2021/12/22 10:56:46;;;;;;;7.70;6.30;;;21.80;60.10;;;;;;5061222;28;20438;-62
2021/12/22 10:59:15;;;;;;;11.13;6.87;;;21.80;60.00;;;;;;5061349;28;20795;-64
2021/12/22 11:02:06;;;;;;;10.10;5.70;;;21.80;60.00;;;;;;5061144;28;20444;-64
2021/12/22 11:04:34;;;;;;;11.50;6.80;;;21.90;60.20;;;;;;5062766;28;20436;-61
2021/12/22 11:07:09;;;;;;;7.20;6.50;;;21.90;60.30;;;;;;5072534;28;20931;-61
2021/12/22 11:09:36;;;;;;;7.33;5.93;;;21.90;60.10;;;;;;5072575;28;20493;-61
2021/12/22 11:12:06;;;;;;;10.73;6.60;;;21.90;60.00;;;;;;5070002;28;20440;-65
2021/12/22 11:14:36;;;;;;;11.57;7.23;;;21.90;60.00;;;;;;5072402;28;20467;-66
2021/12/22 11:17:06;;;;;;;8.60;6.33;;;22.00;58.70;;;;;;5072149;28;20486;-63
2021/12/22 11:19:35;;;;;;;8.67;5.63;;;22.00;59.20;;;;;;5065115;28;20790;-67
2021/12/22 11:22:11;;;;;;;10.27;6.30;;;22.00;59.50;;;;;;5062763;28;20465;-66
2021/12/22 11:24:41;;;;;;;8.30;6.00;;;22.10;60.00;;;;;;5062146;28;20932;-66
2021/12/22 11:27:11;;;;;;;7.00;6.03;;;22.20;60.20;;;;;;5060797;28;20477;-63
2021/12/22 11:29:41;;;;;;;6.53;5.30;;;22.20;60.40;;;;;;5059037;28;20448;-63
2021/12/22 11:32:09;;;;;;;9.60;6.00;;;22.30;60.50;;;;;;5051294;28;20861;-63
2021/12/22 11:34:39;;;;;;;7.67;5.43;;;22.30;60.60;;;;;;5051606;28;20441;-63
2021/12/22 11:37:09;;;;;;;5.07;4.00;;;22.30;60.50;;;;;;5052409;28;20475;-63
2021/12/22 11:39:36;;;;;;;8.90;6.07;;;22.40;60.60;;;;;;5052987;28;20445;-66
2021/12/22 11:42:07;;;;;;;5.13;4.63;;;22.40;60.90;;;;;;5053234;28;20444;-66
2021/12/22 11:44:38;;;;;;;7.93;6.00;;;22.40;60.60;;;;;;5052867;28;20512;-65
2021/12/22 11:47:08;;;;;;;8.97;6.07;;;22.40;61.20;;;;;;5053194;28;20441;-67
2021/12/22 11:49:37;;;;;;;11.67;5.70;;;22.30;60.50;;;;;;5053301;28;20433;-65
2021/12/22 11:52:30;;;;;;;5.10;4.70;;;22.20;60.90;;;;;;5053012;28;20510;-62
2021/12/22 11:55:07;;;;;;;5.47;4.97;;;22.30;61.20;;;;;;5052981;28;20434;-63
2021/12/22 11:57:34;;;;;;;5.07;4.67;;;22.30;61.20;;;;;;5052975;28;20966;-66
2021/12/22 12:00:23;;;;;;;6.70;6.10;;;22.40;61.30;;;;;;5052978;28;20441;-65
2021/12/22 12:02:50;;;;;;;5.23;4.73;;;22.40;61.20;;;;;;5053054;28;20799;-63
2021/12/22 12:05:18;;;;;;;7.60;4.70;;;22.40;61.20;;;;;;5052852;28;20438;-65
2021/12/22 12:07:50;;;;;;;5.87;4.87;;;22.50;61.40;;;;;;5053098;28;20481;-63
2021/12/22 12:10:51;;;;;;;4.90;4.40;;;22.50;61.20;;;;;;5052865;28;20568;-66
2021/12/22 12:13:43;;;;;;;5.47;4.43;;;22.50;61.00;;;;;;5010182;28;20940;-65
2021/12/22 12:22:33;;;;;;;7.07;4.30;;;22.50;61.30;;;;;;5013854;28;20482;-65
2021/12/22 12:25:10;;;;;;;3.97;3.67;;;22.60;61.40;;;;;;5034547;28;20429;-62
2021/12/22 12:27:40;;;;;;;4.57;4.17;;;22.60;61.00;;;;;;5050510;28;20489;-63
2021/12/22 12:30:10;;;;;;;5.17;4.10;;;22.60;61.20;;;;;;5052519;28;20452;-63
2021/12/22 12:32:56;;;;;;;4.13;3.47;;;22.60;61.20;;;;;;5052892;28;20766;-63
2021/12/22 12:35:26;;;;;;;4.27;3.73;;;22.60;61.10;;;;;;5052189;28;20434;-65
2021/12/22 12:38:11;;;;;;;7.37;4.03;;;22.60;61.20;;;;;;5052671;28;20445;-64
2021/12/22 12:41:16;;;;;;;5.20;3.70;;;22.60;61.10;;;;;;5052311;28;20482;-65
2021/12/22 12:43:58;;;;;;;4.53;4.13;;;22.60;61.20;;;;;;5052998;28;20466;-63
2021/12/22 12:46:51;;;;;;;4.73;4.30;;;22.60;61.20;;;;;;5056135;28;20445;-63
2021/12/22 12:49:45;;;;;;;6.10;3.87;;;22.60;61.20;;;;;;5056019;28;20513;-63
2021/12/22 12:52:24;;;;;;;3.97;3.67;;;22.60;61.10;;;;;;5020821;28;20450;-65
2021/12/22 12:54:55;;;;;;;3.87;3.53;;;22.70;61.20;;;;;;5056301;28;20429;-63
2021/12/22 12:57:31;;;;;;;4.40;4.00;;;22.60;61.20;;;;;;5056254;28;20433;-65
2021/12/22 13:00:08;;;;;;;5.83;4.07;;;22.70;61.20;;;;;;5056072;28;20442;-63
2021/12/22 13:02:37;;;;;;;3.50;3.20;;;22.70;61.30;;;;;;5056018;28;20452;-65
2021/12/22 13:05:08;;;;;;;3.93;3.53;;;22.70;61.20;;;;;;5056048;28;20444;-62
2021/12/22 13:07:35;;;;;;;4.20;3.80;;;22.70;61.20;;;;;;5055831;28;20448;-65
2021/12/22 13:10:10;;;;;;;3.73;3.20;;;22.70;61.20;;;;;;5056069;28;20434;-63
2021/12/22 13:15:49;;;;;;;4.17;3.40;;;22.70;61.20;;;;;;5039977;28;20537;-63